Time;durP1;ratioP1;P1;durP2;ratioP2;P2;SDS_P1;SDS_P2;PMS_P1;PMS_P2;Temp;Humidity;BMP_temperature;BMP_pressure;BME280_temperature;BME280_humidity;BME280_pressure;Samples;Min_cycle;Max_cycle;Signal;HPM_P1;HPM_P2
2021/09/18 00:01:48;;;;;;;0.40;0.10;;;;;;;18.63;68.04;99705.94;113636;1193;138089;-73
2021/09/18 00:04:15;;;;;;;0.40;0.10;;;;;;;18.59;68.14;99701.41;114063;1193;93862;-73
2021/09/18 00:06:42;;;;;;;0.40;0.10;;;;;;;18.64;68.12;99697.08;113630;1192;93932;-72
2021/09/18 00:09:09;;;;;;;0.40;0.10;;;;;;;18.69;67.93;99695.69;113647;1193;136292;-72
2021/09/18 00:11:35;;;;;;;0.40;0.20;;;;;;;18.68;67.81;99696.63;113736;1193;94493;-73
2021/09/18 00:14:04;;;;;;;0.40;0.10;;;;;;;18.66;67.85;99694.08;113601;1193;137367;-74
2021/09/18 00:16:30;;;;;;;0.40;0.10;;;;;;;18.70;68.05;99693.27;113579;1193;108206;-73
2021/09/18 00:18:57;;;;;;;0.40;0.10;;;;;;;18.69;67.73;99694.23;114007;1192;93891;-74
2021/09/18 00:21:24;;;;;;;0.40;0.10;;;;;;;18.62;67.96;99693.25;113646;1193;136911;-73
2021/09/18 00:23:54;;;;;;;0.40;0.10;;;;;;;18.55;68.04;99692.52;113671;1193;94905;-72
2021/09/18 00:26:21;;;;;;;0.40;0.10;;;;;;;18.54;68.23;99692.20;113682;1192;138069;-72
2021/09/18 00:28:48;;;;;;;0.40;0.10;;;;;;;18.60;68.04;99691.42;114134;1193;94901;-74
2021/09/18 00:31:15;;;;;;;0.40;0.10;;;;;;;18.69;67.93;99692.09;113760;1193;137615;-73
2021/09/18 00:33:42;;;;;;;0.40;0.10;;;;;;;18.68;67.93;99689.98;114017;1192;94805;-72
2021/09/18 00:36:09;;;;;;;0.40;0.10;;;;;;;18.67;67.90;99692.05;113508;1193;95294;-73
2021/09/18 00:38:37;;;;;;;0.40;0.10;;;;;;;18.67;67.90;99687.02;113858;1192;137903;-73
2021/09/18 00:41:04;;;;;;;0.40;0.10;;;;;;;18.66;67.96;99689.40;113736;1193;96569;-72
2021/09/18 00:43:31;;;;;;;0.40;0.10;;;;;;;18.61;68.01;99687.22;113936;1193;137688;-72
2021/09/18 00:45:57;;;;;;;0.40;0.10;;;;;;;18.55;68.21;99684.02;113737;1193;95195;-72
2021/09/18 00:48:24;;;;;;;0.40;0.10;;;;;;;18.50;68.37;99681.92;113674;1193;95235;-73
2021/09/18 00:50:51;;;;;;;0.40;0.10;;;;;;;18.51;68.49;99681.29;113762;1193;138139;-73
2021/09/18 00:53:18;;;;;;;0.40;0.10;;;;;;;18.56;68.35;99683.66;113600;1193;94798;-72
2021/09/18 00:55:45;;;;;;;0.40;0.10;;;;;;;18.62;68.18;99684.10;113582;1193;138171;-73
2021/09/18 00:58:11;;;;;;;0.40;0.10;;;;;;;18.60;68.10;99683.87;113765;1193;95296;-73
2021/09/18 01:00:38;;;;;;;0.40;0.10;;;;;;;18.60;68.18;99683.71;113768;1192;94852;-74
2021/09/18 01:03:05;;;;;;;0.40;0.10;;;;;;;18.64;68.24;99686.33;113859;1175;137786;-74
2021/09/18 01:05:33;;;;;;;0.40;0.10;;;;;;;18.69;68.02;99684.34;113401;1194;94789;-74
2021/09/18 01:08:01;;;;;;;0.40;0.10;;;;;;;18.73;67.94;99686.20;113422;1193;137966;-76
2021/09/18 01:10:28;;;;;;;0.40;0.10;;;;;;;18.71;67.90;99684.34;113483;1193;109658;-76
2021/09/18 01:13:00;;;;;;;0.40;0.10;;;;;;;18.63;68.22;99681.55;113456;1194;94900;-76
2021/09/18 01:15:28;;;;;;;0.40;0.10;;;;;;;18.66;68.10;99681.15;113421;1193;138009;-76
2021/09/18 01:17:56;;;;;;;0.40;0.10;;;;;;;18.65;68.22;99682.47;113551;1193;108603;-76
2021/09/18 01:20:23;;;;;;;0.40;0.10;;;;;;;18.69;68.15;99682.14;113489;1193;139325;-75
2021/09/18 01:22:51;;;;;;;0.40;0.10;;;;;;;18.69;68.14;99679.65;113469;1194;94836;-75
2021/09/18 01:25:18;;;;;;;0.40;0.10;;;;;;;18.68;68.06;99676.45;113548;1193;138589;-76
2021/09/18 01:27:45;;;;;;;0.40;0.10;;;;;;;18.69;68.10;99673.71;113576;1194;94884;-76
2021/09/18 01:30:21;;;;;;;0.40;0.10;;;;;;;18.73;67.93;99671.45;113520;1193;95322;-75
2021/09/18 01:32:48;;;;;;;0.40;0.10;;;;;;;18.71;67.96;99673.23;113540;1193;137257;-76
2021/09/18 01:35:15;;;;;;;0.40;0.10;;;;;;;18.71;68.03;99672.15;113610;1193;95517;-75
2021/09/18 01:37:46;;;;;;;0.40;0.10;;;;;;;18.69;67.95;99673.86;113464;1193;139885;-75
2021/09/18 01:40:26;;;;;;;0.40;0.10;;;;;;;18.67;68.21;99670.61;113316;1195;109743;-76
2021/09/18 01:42:54;;;;;;;0.40;0.10;;;;;;;18.75;67.97;99669.32;113622;1193;94784;-75
2021/09/18 01:45:21;;;;;;;0.40;0.10;;;;;;;18.75;67.98;99666.46;113490;1193;138318;-76
2021/09/18 01:47:56;;;;;;;0.40;0.10;;;;;;;18.72;68.12;99666.69;113551;1193;94888;-76
2021/09/18 01:50:26;;;;;;;0.40;0.10;;;;;;;18.68;68.19;99665.17;113438;1193;137871;-75
2021/09/18 01:52:55;;;;;;;0.40;0.10;;;;;;;18.68;68.25;99662.84;113632;1193;94905;-76
2021/09/18 01:55:22;;;;;;;0.40;0.10;;;;;;;18.66;68.14;99657.20;113504;1193;139167;-76
2021/09/18 01:57:51;;;;;;;0.40;0.10;;;;;;;18.61;68.32;99652.72;113622;1193;94803;-75
2021/09/18 02:00:19;;;;;;;0.40;0.10;;;;;;;18.52;68.40;99651.38;113599;1193;109468;-76
2021/09/18 02:02:46;;;;;;;0.40;0.10;;;;;;;18.49;68.66;99650.85;113486;1193;140111;-76
2021/09/18 02:05:15;;;;;;;0.40;0.10;;;;;;;18.49;68.80;99649.78;113563;1193;94901;-76
2021/09/18 02:07:42;;;;;;;0.40;0.10;;;;;;;18.49;68.89;99648.16;113466;1193;138124;-76
2021/09/18 02:10:12;;;;;;;0.40;0.10;;;;;;;18.57;68.73;99650.31;113504;1195;94804;-76
2021/09/18 02:12:39;;;;;;;0.40;0.10;;;;;;;18.58;68.70;99645.94;113572;1193;94899;-74
2021/09/18 02:15:07;;;;;;;0.40;0.10;;;;;;;18.53;68.69;99644.85;113354;1193;138705;-76
2021/09/18 02:17:34;;;;;;;0.40;0.10;;;;;;;18.50;68.93;99645.21;113585;1196;108402;-76
2021/09/18 02:20:01;;;;;;;0.40;0.10;;;;;;;18.58;68.77;99641.98;113412;1193;139938;-76
2021/09/18 02:22:28;;;;;;;0.40;0.10;;;;;;;18.60;68.67;99641.84;113607;1193;95761;-75
2021/09/18 02:24:54;;;;;;;0.40;0.10;;;;;;;18.60;68.74;99640.90;113577;1193;94922;-76
2021/09/18 02:27:21;;;;;;;0.40;0.20;;;;;;;18.62;68.69;99640.98;113434;1193;138537;-76
2021/09/18 02:29:48;;;;;;;0.40;0.10;;;;;;;18.70;68.60;99638.36;113671;1193;95327;-74
2021/09/18 02:32:14;;;;;;;0.40;0.10;;;;;;;18.80;68.24;99636.97;113431;1193;138374;-75
2021/09/18 02:34:41;;;;;;;0.40;0.10;;;;;;;18.79;68.20;99635.95;113424;1193;94795;-75
2021/09/18 02:37:08;;;;;;;0.40;0.10;;;;;;;18.78;68.14;99635.88;113463;1193;138020;-75
2021/09/18 02:39:35;;;;;;;0.40;0.10;;;;;;;18.80;68.21;99636.60;113549;1193;95305;-75
2021/09/18 02:42:01;;;;;;;0.40;0.10;;;;;;;18.82;68.21;99637.38;113521;1193;95227;-74
2021/09/18 02:44:28;;;;;;;0.40;0.10;;;;;;;18.77;68.12;99638.60;113571;1193;138030;-75
2021/09/18 02:46:55;;;;;;;0.40;0.10;;;;;;;18.77;67.99;99637.90;113613;1193;94804;-75
2021/09/18 02:49:22;;;;;;;0.40;0.10;;;;;;;18.81;67.87;99639.02;113510;1193;137513;-74
2021/09/18 02:51:48;;;;;;;0.40;0.10;;;;;;;18.77;68.12;99635.02;113576;1194;96769;-75
2021/09/18 02:54:15;;;;;;;0.40;0.10;;;;;;;18.80;68.00;99633.21;113500;1195;95506;-75
2021/09/18 02:56:42;;;;;;;0.40;0.10;;;;;;;18.84;67.98;99633.25;113416;1193;139566;-75
2021/09/18 02:59:09;;;;;;;0.40;0.10;;;;;;;18.92;67.78;99634.88;113633;1193;95844;-75
2021/09/18 03:01:36;;;;;;;0.40;0.10;;;;;;;18.93;67.69;99632.30;113439;1193;138315;-75
2021/09/18 03:04:03;;;;;;;0.40;0.10;;;;;;;18.94;67.60;99631.13;113537;1193;94812;-75
2021/09/18 03:06:30;;;;;;;0.40;0.10;;;;;;;18.97;67.49;99633.26;113538;1193;94907;-74
2021/09/18 03:08:57;;;;;;;0.40;0.10;;;;;;;18.92;67.62;99632.18;113430;1193;138515;-74
2021/09/18 03:11:24;;;;;;;0.40;0.10;;;;;;;18.84;67.82;99630.56;113540;1195;94780;-74
2021/09/18 03:13:50;;;;;;;0.40;0.10;;;;;;;18.77;67.86;99631.48;113452;1193;139118;-74
2021/09/18 03:16:17;;;;;;;0.40;0.10;;;;;;;18.73;68.09;99629.04;113665;1193;95284;-74
2021/09/18 03:18:44;;;;;;;0.40;0.10;;;;;;;18.75;68.06;99628.02;113500;1196;109503;-75
2021/09/18 03:21:11;;;;;;;0.40;0.10;;;;;;;18.77;68.03;99628.36;113432;1193;139357;-75
2021/09/18 03:23:38;;;;;;;0.40;0.10;;;;;;;18.70;67.98;99628.66;113614;1193;95229;-74
2021/09/18 03:26:04;;;;;;;0.40;0.10;;;;;;;18.62;68.26;99629.44;113439;1193;138936;-75
2021/09/18 03:28:31;;;;;;;0.40;0.10;;;;;;;18.58;68.48;99625.09;113550;1193;95339;-75
2021/09/18 03:30:58;;;;;;;0.40;0.20;;;;;;;18.60;68.42;99629.08;113646;1193;94812;-74
2021/09/18 03:33:25;;;;;;;0.40;0.10;;;;;;;18.64;68.43;99628.63;113434;1193;137967;-74
2021/09/18 03:35:51;;;;;;;0.40;0.10;;;;;;;18.59;68.28;99624.48;113570;1193;94808;-75
2021/09/18 03:38:19;;;;;;;0.40;0.10;;;;;;;18.53;68.51;99626.28;113428;1193;139018;-74
2021/09/18 03:40:46;;;;;;;0.40;0.10;;;;;;;18.56;68.59;99623.92;113492;1193;94815;-75
2021/09/18 03:43:12;;;;;;;0.40;0.10;;;;;;;18.55;68.57;99626.68;113435;1193;139276;-74
2021/09/18 03:45:39;;;;;;;0.40;0.10;;;;;;;18.55;68.70;99624.02;113549;1195;95348;-74
2021/09/18 03:48:06;;;;;;;0.40;0.10;;;;;;;18.47;68.73;99625.66;113643;1193;94798;-74
2021/09/18 03:50:33;;;;;;;0.40;0.10;;;;;;;18.44;69.10;99623.87;113440;1194;137663;-74
2021/09/18 03:53:00;;;;;;;0.40;0.10;;;;;;;18.50;69.00;99621.52;113624;1193;109708;-74
2021/09/18 03:55:27;;;;;;;0.40;0.10;;;;;;;18.57;68.97;99623.17;113436;1195;138940;-75
2021/09/18 03:57:53;;;;;;;0.40;0.10;;;;;;;18.66;68.73;99621.94;113580;1193;94807;-75
2021/09/18 04:00:20;;;;;;;0.40;0.10;;;;;;;18.68;68.62;99623.45;113696;1193;94905;-74
2021/09/18 04:02:47;;;;;;;0.40;0.10;;;;;;;18.66;68.75;99620.52;113558;1193;138574;-74
2021/09/18 04:05:14;;;;;;;0.40;0.10;;;;;;;18.68;68.59;99620.38;113631;1193;111512;-75
2021/09/18 04:07:41;;;;;;;0.40;0.10;;;;;;;18.67;68.69;99618.13;113535;1195;138895;-74
2021/09/18 04:10:08;;;;;;;0.40;0.10;;;;;;;18.74;68.56;99619.77;113567;1196;94719;-74
2021/09/18 04:12:34;;;;;;;0.40;0.10;;;;;;;18.81;68.52;99620.90;113641;1193;94895;-75
2021/09/18 04:15:03;;;;;;;0.40;0.10;;;;;;;18.80;68.48;99620.27;113467;1193;139693;-74
2021/09/18 04:17:29;;;;;;;0.40;0.10;;;;;;;18.85;68.10;99620.42;113543;1193;95253;-74
2021/09/18 04:19:56;;;;;;;0.40;0.10;;;;;;;18.85;68.10;99625.64;113499;1193;138837;-75
2021/09/18 04:22:23;;;;;;;0.40;0.10;;;;;;;18.72;67.99;99624.42;113615;1193;95327;-77
2021/09/18 04:24:50;;;;;;;0.40;0.10;;;;;;;18.60;67.67;99622.93;113573;1193;94932;-76
2021/09/18 04:27:16;;;;;;;0.40;0.10;;;;;;;18.54;67.80;99625.67;113245;1193;137665;-76
2021/09/18 04:29:43;;;;;;;0.40;0.10;;;;;;;18.41;67.57;99627.00;113578;1195;94779;-76
2021/09/18 04:32:10;;;;;;;0.40;0.10;;;;;;;18.27;67.73;99628.21;113479;1193;138225;-76
2021/09/18 04:34:36;;;;;;;0.40;0.10;;;;;;;18.23;67.71;99627.59;113469;1194;94908;-76
2021/09/18 04:37:03;;;;;;;0.40;0.10;;;;;;;18.19;67.68;99630.91;113578;1196;94845;-76
2021/09/18 04:39:30;;;;;;;0.40;0.10;;;;;;;18.05;67.83;99628.98;113513;1193;137968;-75
2021/09/18 04:41:57;;;;;;;0.40;0.10;;;;;;;17.87;68.16;99633.75;113391;1193;94802;-76
2021/09/18 04:44:24;;;;;;;0.40;0.20;;;;;;;17.78;68.66;99635.09;113304;1195;138087;-75
2021/09/18 04:46:50;;;;;;;0.40;0.10;;;;;;;17.49;69.15;99639.74;113577;1196;94807;-75
2021/09/18 04:49:17;;;;;;;0.40;0.10;;;;;;;17.22;69.91;99639.59;113472;1193;139996;-75
2021/09/18 04:51:44;;;;;;;0.40;0.10;;;;;;;17.10;70.61;99637.16;113704;1193;94889;-76
2021/09/18 04:54:10;;;;;;;0.40;0.10;;;;;;;17.01;70.87;99641.33;113697;1193;94893;-76
2021/09/18 04:56:37;;;;;;;0.40;0.10;;;;;;;16.91;70.99;99641.95;113478;1193;137951;-76
2021/09/18 04:59:04;;;;;;;0.40;0.10;;;;;;;16.92;71.37;99641.69;113597;1193;94930;-75
2021/09/18 05:01:30;;;;;;;0.40;0.10;;;;;;;16.92;71.37;99646.57;113528;1193;138853;-73
2021/09/18 05:03:57;;;;;;;0.40;0.10;;;;;;;16.74;71.54;99652.53;113573;1194;95372;-75
2021/09/18 05:06:24;;;;;;;0.40;0.10;;;;;;;16.76;71.92;99649.52;113626;1195;95393;-75
2021/09/18 05:08:51;;;;;;;0.40;0.10;;;;;;;16.84;71.70;99649.19;113501;1195;138462;-74
2021/09/18 05:11:17;;;;;;;0.40;0.10;;;;;;;16.73;71.92;99650.61;113554;1195;108294;-75
2021/09/18 05:13:45;;;;;;;0.40;0.20;;;;;;;16.72;71.86;99649.02;113495;1196;138771;-75
2021/09/18 05:16:11;;;;;;;0.40;0.10;;;;;;;16.83;71.67;99654.44;113526;1195;95307;-74
2021/09/18 05:18:38;;;;;;;0.40;0.20;;;;;;;16.97;71.06;99655.17;113579;1195;95457;-76
2021/09/18 05:21:05;;;;;;;0.40;0.20;;;;;;;16.99;71.15;99659.20;113388;1195;137637;-75
2021/09/18 05:23:32;;;;;;;0.40;0.20;;;;;;;17.08;70.70;99661.70;113602;1195;95312;-75
2021/09/18 05:25:59;;;;;;;0.40;0.10;;;;;;;17.12;69.85;99662.30;113488;1195;139244;-75
2021/09/18 05:28:25;;;;;;;0.40;0.10;;;;;;;17.03;70.01;99659.64;113573;1193;95141;-76
2021/09/18 05:30:52;;;;;;;0.40;0.20;;;;;;;16.88;70.72;99662.95;113533;1195;95355;-77
2021/09/18 05:33:19;;;;;;;0.40;0.20;;;;;;;16.85;71.00;99665.27;113328;1195;140764;-75
2021/09/18 05:35:45;;;;;;;0.40;0.20;;;;;;;16.83;70.67;99668.27;113481;1195;95269;-76
2021/09/18 05:38:12;;;;;;;0.40;0.20;;;;;;;16.84;70.75;99673.39;113393;1195;138538;-76
2021/09/18 05:40:39;;;;;;;0.40;0.10;;;;;;;16.91;70.90;99675.67;113606;1195;94839;-76
2021/09/18 05:43:05;;;;;;;0.40;0.10;;;;;;;16.97;70.56;99679.78;113395;1195;138353;-77
2021/09/18 05:45:32;;;;;;;0.40;0.20;;;;;;;17.04;70.23;99681.79;113584;1195;94821;-77
2021/09/18 05:48:02;;;;;;;0.40;0.10;;;;;;;17.14;70.02;99683.84;113495;1194;94818;-75
2021/09/18 05:50:29;;;;;;;0.40;0.10;;;;;;;17.24;69.49;99682.86;113466;1194;137506;-75
2021/09/18 05:52:56;;;;;;;0.40;0.20;;;;;;;17.10;69.36;99685.17;113469;1195;94778;-75
2021/09/18 05:55:23;;;;;;;0.40;0.10;;;;;;;17.11;69.70;99686.61;113358;1195;138891;-75
2021/09/18 05:57:50;;;;;;;0.40;0.10;;;;;;;17.16;69.82;99688.07;113436;1195;94526;-76
2021/09/18 06:00:17;;;;;;;0.40;0.10;;;;;;;17.17;69.43;99688.35;113586;1195;94922;-76
2021/09/18 06:02:43;;;;;;;0.40;0.20;;;;;;;17.23;69.16;99689.57;113542;1194;137669;-75
2021/09/18 06:05:12;;;;;;;0.40;0.10;;;;;;;17.27;69.15;99689.14;113498;1196;96016;-76
2021/09/18 06:07:39;;;;;;;0.40;0.20;;;;;;;17.21;68.93;99690.59;113465;1194;139046;-77
2021/09/18 06:10:06;;;;;;;0.40;0.10;;;;;;;16.95;69.44;99687.96;113658;1194;95332;-76
2021/09/18 06:12:33;;;;;;;0.40;0.20;;;;;;;16.67;69.96;99693.30;114487;1194;93970;-76
2021/09/18 06:15:00;;;;;;;0.40;0.20;;;;;;;16.43;70.48;99694.21;113539;1194;137653;-76
2021/09/18 06:17:27;;;;;;;0.40;0.20;;;;;;;16.26;70.99;99700.11;113646;1195;94820;-76
2021/09/18 06:19:54;;;;;;;0.40;0.20;;;;;;;16.32;71.32;99697.02;113410;1195;137902;-76
2021/09/18 06:22:21;;;;;;;0.40;0.10;;;;;;;16.39;71.36;99693.77;113557;1193;96542;-76
2021/09/18 06:24:47;;;;;;;0.40;0.20;;;;;;;16.49;70.97;99702.64;113602;1193;94819;-76
2021/09/18 06:27:14;;;;;;;0.40;0.20;;;;;;;16.46;70.57;99705.50;113445;1193;138387;-75
2021/09/18 06:29:41;;;;;;;0.40;0.20;;;;;;;16.34;70.60;99711.96;113631;1193;94797;-76
2021/09/18 06:32:08;;;;;;;0.40;0.20;;;;;;;16.25;70.87;99717.21;113536;1194;139579;-76
2021/09/18 06:34:35;;;;;;;0.40;0.20;;;;;;;16.25;70.94;99719.86;113503;1195;94832;-76
2021/09/18 06:37:02;;;;;;;0.40;0.20;;;;;;;16.28;70.61;99718.64;113592;1193;94984;-76
2021/09/18 06:39:29;;;;;;;0.40;0.20;;;;;;;16.30;70.77;99723.53;113378;1195;138412;-76
2021/09/18 06:41:56;;;;;;;0.40;0.20;;;;;;;16.17;70.64;99728.77;113549;1195;94847;-76
2021/09/18 06:44:22;;;;;;;0.40;0.20;;;;;;;16.05;70.77;99735.22;113457;1195;137903;-76
2021/09/18 06:46:49;;;;;;;0.40;0.20;;;;;;;15.96;70.61;99732.20;113556;1195;94859;-76
2021/09/18 06:49:16;;;;;;;0.40;0.20;;;;;;;15.93;70.78;99731.65;113558;1195;138558;-76
2021/09/18 06:51:42;;;;;;;0.40;0.20;;;;;;;15.92;70.38;99733.11;113432;1194;108794;-76
2021/09/18 06:54:09;;;;;;;0.40;0.20;;;;;;;15.85;70.17;99736.21;113480;1194;95779;-75
2021/09/18 06:56:36;;;;;;;0.40;0.20;;;;;;;15.69;70.44;99735.52;113326;1195;137703;-77
2021/09/18 06:59:03;;;;;;;0.40;0.20;;;;;;;15.66;70.33;99735.48;113495;1194;94799;-76
2021/09/18 07:01:30;;;;;;;0.40;0.20;;;;;;;15.67;70.57;99739.52;113315;1195;139626;-76
2021/09/18 07:03:56;;;;;;;0.40;0.20;;;;;;;15.70;70.31;99741.50;113453;1193;94780;-76
2021/09/18 07:06:23;;;;;;;0.40;0.20;;;;;;;15.77;70.12;99745.95;113433;1194;111514;-76
2021/09/18 07:08:53;;;;;;;0.40;0.20;;;;;;;15.78;69.83;99745.20;113310;1195;138571;-76
2021/09/18 07:11:20;;;;;;;0.40;0.20;;;;;;;15.74;70.16;99749.89;113555;1195;94807;-76
2021/09/18 07:13:47;;;;;;;0.40;0.20;;;;;;;15.60;69.53;99749.78;113379;1193;138818;-76
2021/09/18 07:16:13;;;;;;;0.40;0.20;;;;;;;15.43;70.47;99750.63;113441;1195;95366;-76
2021/09/18 07:18:40;;;;;;;0.40;0.20;;;;;;;15.43;70.38;99755.45;113540;1195;94864;-76
2021/09/18 07:21:07;;;;;;;0.40;0.20;;;;;;;15.43;70.05;99754.17;113398;1194;139595;-76
2021/09/18 07:23:33;;;;;;;0.40;0.20;;;;;;;15.39;70.52;99757.95;113568;1194;96084;-75
2021/09/18 07:26:00;;;;;;;0.40;0.20;;;;;;;15.57;70.60;99764.31;113447;1194;139498;-76
2021/09/18 07:28:29;;;;;;;0.40;0.20;;;;;;;15.73;69.81;99760.33;113539;1195;94818;-75
2021/09/18 07:30:56;;;;;;;0.40;0.20;;;;;;;15.80;69.58;99761.00;113568;1194;95272;-75
2021/09/18 07:33:22;;;;;;;0.40;0.20;;;;;;;15.87;68.62;99764.00;113209;1195;137748;-75
2021/09/18 07:35:49;;;;;;;0.40;0.20;;;;;;;15.87;68.57;99767.78;113424;1195;94908;-74
2021/09/18 07:38:16;;;;;;;0.40;0.20;;;;;;;15.92;68.20;99773.06;113545;1195;139157;-74
2021/09/18 07:40:43;;;;;;;0.40;0.20;;;;;;;15.89;68.01;99774.29;113495;1193;94900;-74
2021/09/18 07:43:10;;;;;;;0.40;0.20;;;;;;;15.96;67.69;99775.30;113554;1194;138703;-74
2021/09/18 07:45:36;;;;;;;0.40;0.20;;;;;;;16.08;67.88;99775.30;113595;1195;95441;-74
2021/09/18 07:48:03;;;;;;;0.40;0.20;;;;;;;16.15;68.13;99774.36;113540;1193;108491;-75
2021/09/18 07:50:30;;;;;;;0.40;0.20;;;;;;;16.09;67.99;99776.14;113413;1194;139287;-75
2021/09/18 07:52:58;;;;;;;0.40;0.20;;;;;;;16.13;67.66;99775.37;113502;1195;94873;-75
2021/09/18 07:55:26;;;;;;;0.40;0.20;;;;;;;16.23;67.21;99771.59;113461;1194;139140;-75
2021/09/18 07:58:14;;;;;;;0.40;0.20;;;;;;;16.28;65.70;99769.66;113482;1195;107252;-75
2021/09/18 08:00:41;;;;;;;0.40;0.20;;;;;;;16.26;66.05;99772.31;113555;1195;109866;-74
2021/09/18 08:03:08;;;;;;;0.40;0.20;;;;;;;16.34;66.22;99771.26;113339;1193;139123;-74
2021/09/18 08:05:35;;;;;;;0.40;0.20;;;;;;;16.45;65.89;99774.37;113541;1195;94872;-74
2021/09/18 08:08:03;;;;;;;0.40;0.20;;;;;;;16.50;65.37;99775.52;113396;1193;139470;-74
2021/09/18 08:10:30;;;;;;;0.40;0.20;;;;;;;16.35;64.93;99773.17;113623;1195;95348;-74
2021/09/18 08:12:57;;;;;;;0.40;0.20;;;;;;;16.28;65.58;99774.38;113551;1195;94804;-74
2021/09/18 08:15:24;;;;;;;0.40;0.20;;;;;;;16.25;65.63;99776.52;113476;1194;137707;-76
2021/09/18 08:17:51;;;;;;;0.40;0.20;;;;;;;16.25;65.48;99777.89;113463;1195;94813;-75
2021/09/18 08:20:19;;;;;;;0.40;0.20;;;;;;;16.13;65.25;99784.73;113364;1195;138047;-75
2021/09/18 08:22:47;;;;;;;0.40;0.20;;;;;;;16.09;65.65;99786.36;113592;1195;94912;-75
2021/09/18 08:25:14;;;;;;;0.40;0.20;;;;;;;16.03;65.77;99788.19;113749;1194;139320;-76
2021/09/18 08:27:41;;;;;;;0.40;0.20;;;;;;;15.85;65.50;99791.88;113972;1195;95702;-76
2021/09/18 08:30:09;;;;;;;0.40;0.20;;;;;;;15.74;66.06;99793.20;113525;1194;94860;-75
2021/09/18 08:32:36;;;;;;;0.40;0.20;;;;;;;15.73;66.50;99792.39;113606;1195;137340;-76
2021/09/18 08:35:03;;;;;;;0.40;0.20;;;;;;;15.80;66.80;99794.14;113413;1194;94847;-75
2021/09/18 08:37:30;;;;;;;0.40;0.20;;;;;;;15.82;66.44;99796.76;113368;1193;138546;-75
2021/09/18 08:39:57;;;;;;;0.40;0.20;;;;;;;15.82;66.58;99796.20;113281;1195;94867;-75
2021/09/18 08:42:26;;;;;;;0.40;0.20;;;;;;;15.89;66.67;99798.66;113448;1193;95359;-75
2021/09/18 08:44:53;;;;;;;0.40;0.20;;;;;;;15.83;66.32;99799.69;113196;1195;138107;-75
2021/09/18 08:47:23;;;;;;;0.40;0.20;;;;;;;15.78;66.41;99799.77;113371;1194;94808;-74
2021/09/18 08:49:50;;;;;;;0.40;0.20;;;;;;;15.84;66.68;99799.27;114770;1194;139137;-75
2021/09/18 08:52:17;;;;;;;0.40;0.20;;;;;;;15.94;66.51;99800.66;114926;1194;93346;-76
2021/09/18 08:54:44;;;;;;;0.40;0.20;;;;;;;15.85;65.34;99804.60;113842;1194;95324;-74
2021/09/18 08:57:12;;;;;;;0.40;0.20;;;;;;;15.81;66.07;99804.84;113363;1195;139115;-74
2021/09/18 08:59:39;;;;;;;0.40;0.20;;;;;;;15.86;66.30;99808.66;113958;1194;94809;-77
2021/09/18 09:02:14;;;;;;;0.40;0.20;;;;;;;15.93;66.04;99811.52;113406;1194;139615;-74
2021/09/18 09:04:43;;;;;;;0.40;0.20;;;;;;;15.87;65.16;99814.68;113872;1193;94779;-74
2021/09/18 09:07:12;;;;;;;0.40;0.20;;;;;;;15.80;65.45;99811.31;113664;1193;139575;-74
2021/09/18 09:10:00;;;;;;;0.40;0.20;;;;;;;15.75;65.51;99810.14;113591;1193;110122;-74
2021/09/18 09:12:36;;;;;;;0.40;0.20;;;;;;;15.65;65.64;99816.11;113549;1193;94832;-75
2021/09/18 09:15:09;;;;;;;0.40;0.20;;;;;;;15.58;65.85;99815.08;113433;1193;138343;-74
2021/09/18 09:17:38;;;;;;;0.40;0.20;;;;;;;15.49;65.67;99822.00;113309;1195;107788;-74
2021/09/18 09:20:06;;;;;;;0.40;0.20;;;;;;;15.39;65.99;99825.23;113222;1195;139708;-74
2021/09/18 09:22:47;;;;;;;0.40;0.20;;;;;;;15.29;65.95;99821.32;113635;1193;96514;-74
2021/09/18 09:25:25;;;;;;;0.40;0.20;;;;;;;15.18;66.43;99822.77;113444;1193;138554;-74
2021/09/18 09:27:53;;;;;;;0.40;0.20;;;;;;;15.17;66.31;99825.34;113545;1193;108701;-74
2021/09/18 09:30:28;;;;;;;0.40;0.20;;;;;;;15.16;66.21;99827.18;113576;1193;110331;-75
2021/09/18 09:32:55;;;;;;;0.40;0.20;;;;;;;15.20;66.87;99831.48;113463;1193;139557;-75
2021/09/18 09:35:22;;;;;;;0.40;0.20;;;;;;;15.23;66.52;99833.43;113515;1193;95434;-74
2021/09/18 09:37:56;;;;;;;0.40;0.20;;;;;;;15.29;66.24;99828.99;113354;1194;138643;-74
2021/09/18 09:40:33;;;;;;;0.40;0.20;;;;;;;15.30;66.04;99831.11;113618;1193;109583;-74
2021/09/18 09:43:00;;;;;;;0.40;0.20;;;;;;;15.20;65.72;99832.86;113534;1195;94794;-75
2021/09/18 09:45:27;;;;;;;0.40;0.20;;;;;;;15.15;65.76;99828.70;113524;1193;139462;-75
2021/09/18 09:48:03;;;;;;;0.40;0.20;;;;;;;15.05;65.83;99830.86;113540;1193;94956;-75
2021/09/18 09:50:31;;;;;;;0.40;0.20;;;;;;;14.93;65.99;99834.86;113494;1195;138346;-74
2021/09/18 09:52:58;;;;;;;0.40;0.20;;;;;;;14.91;66.58;99839.45;113552;1193;94808;-74
2021/09/18 09:55:29;;;;;;;0.40;0.20;;;;;;;14.96;66.22;99833.64;113567;1193;138018;-74
2021/09/18 09:57:59;;;;;;;0.40;0.20;;;;;;;14.98;65.59;99838.72;113509;1193;94765;-74
2021/09/18 10:00:36;;;;;;;0.40;0.20;;;;;;;14.93;65.47;99836.52;113422;1194;109673;-73
2021/09/18 10:03:03;;;;;;;0.40;0.20;;;;;;;15.00;65.68;99838.09;113441;1193;139321;-73
2021/09/18 10:05:29;;;;;;;0.40;0.20;;;;;;;15.10;65.93;99836.96;113653;1193;94785;-74
2021/09/18 10:07:58;;;;;;;0.40;0.20;;;;;;;15.19;66.28;99836.88;113506;1193;139146;-73
2021/09/18 10:10:25;;;;;;;0.40;0.20;;;;;;;15.23;65.52;99841.69;113486;1193;110144;-74
2021/09/18 10:12:54;;;;;;;0.40;0.20;;;;;;;15.15;65.88;99842.80;113604;1193;94803;-76
2021/09/18 10:15:24;;;;;;;0.40;0.20;;;;;;;15.24;66.11;99840.02;113437;1193;138965;-75
2021/09/18 10:17:53;;;;;;;0.40;0.20;;;;;;;15.35;65.59;99840.48;113465;1193;108650;-74
2021/09/18 10:25:38;;;;;;;0.40;0.20;;;;;;;15.35;64.65;99845.65;113405;1193;139166;-74
2021/09/18 10:28:09;;;;;;;0.40;0.30;;;;;;;15.31;63.98;99844.84;113315;1193;108519;-74
2021/09/18 10:30:47;;;;;;;0.40;0.20;;;;;;;15.23;64.04;99846.33;113541;1193;109586;-74
2021/09/18 10:33:32;;;;;;;0.40;0.20;;;;;;;15.18;64.18;99848.36;113405;1193;139223;-74
2021/09/18 10:36:09;;;;;;;0.40;0.20;;;;;;;15.10;63.53;99850.95;113561;1193;95338;-74
2021/09/18 10:38:46;;;;;;;0.40;0.20;;;;;;;15.03;63.41;99854.17;113337;1193;139579;-74
2021/09/18 10:41:20;;;;;;;0.40;0.20;;;;;;;15.03;64.39;99857.38;113587;1193;108606;-74
2021/09/18 10:43:57;;;;;;;0.40;0.20;;;;;;;15.00;64.54;99858.67;113388;1193;137576;-74
2021/09/18 10:46:42;;;;;;;0.40;0.20;;;;;;;15.06;64.12;99858.51;113578;1193;94770;-76
2021/09/18 10:49:44;;;;;;;0.40;0.20;;;;;;;15.04;63.72;99859.11;113483;1193;137731;-74
2021/09/18 10:52:17;;;;;;;0.40;0.20;;;;;;;15.04;63.73;99863.27;112860;1198;109612;-74
2021/09/18 10:55:02;;;;;;;0.40;0.20;;;;;;;14.92;63.26;99862.98;113478;1193;94930;-74
2021/09/18 10:57:38;;;;;;;0.40;0.20;;;;;;;14.85;63.29;99866.56;113461;1193;138481;-74
2021/09/18 11:00:06;;;;;;;0.40;0.30;;;;;;;14.85;63.78;99866.04;113623;1193;108579;-75
2021/09/18 11:02:33;;;;;;;0.40;0.20;;;;;;;14.93;63.83;99868.29;113496;1193;138242;-74
2021/09/18 11:05:00;;;;;;;0.40;0.30;;;;;;;14.88;63.21;99871.61;113631;1193;94816;-74
2021/09/18 11:07:47;;;;;;;0.40;0.20;;;;;;;14.92;63.40;99871.21;113521;1193;139438;-74
2021/09/18 11:10:17;;;;;;;0.40;0.20;;;;;;;15.07;63.09;99871.30;113623;1193;108691;-74
2021/09/18 11:13:09;;;;;;;0.40;0.20;;;;;;;15.18;62.12;99870.93;113487;1193;108391;-74
2021/09/18 11:16:00;;;;;;;0.40;0.20;;;;;;;15.12;61.73;99867.31;113539;1193;138413;-74
2021/09/18 11:18:27;;;;;;;0.40;0.20;;;;;;;15.00;61.56;99864.70;113658;1193;94881;-74
2021/09/18 11:21:11;;;;;;;0.40;0.20;;;;;;;14.96;61.84;99869.74;113449;1193;138632;-74
2021/09/18 11:23:53;;;;;;;0.40;0.20;;;;;;;14.95;62.09;99869.27;113662;1193;109674;-74
2021/09/18 11:26:41;;;;;;;0.40;0.20;;;;;;;14.97;62.27;99878.63;113481;1193;138486;-74
2021/09/18 11:29:17;;;;;;;0.40;0.30;;;;;;;15.00;62.84;99879.91;113801;1193;96200;-74
2021/09/18 11:31:53;;;;;;;0.40;0.20;;;;;;;15.14;62.36;99882.54;113500;1193;138559;-74
2021/09/18 11:34:24;;;;;;;0.40;0.20;;;;;;;15.14;61.96;99880.80;113564;1193;109478;-74